Time;durP1;ratioP1;P1;durP2;ratioP2;P2;SDS_P1;SDS_P2;PMS_P1;PMS_P2;Temp;Humidity;BMP_temperature;BMP_pressure;BME280_temperature;BME280_humidity;BME280_pressure;Samples;Min_cycle;Max_cycle;Signal;HPM_P1;HPM_P2
2023/06/26 00:00:33;;;;;;;4.17;3.70;;;25.80;92.40;;;;;;5062149;28;20492;-56
2023/06/26 00:03:00;;;;;;;4.07;3.67;;;25.80;92.40;;;;;;5062391;28;20450;-57
2023/06/26 00:05:27;;;;;;;4.33;3.93;;;25.80;92.40;;;;;;5062438;28;20784;-57
2023/06/26 00:07:54;;;;;;;4.13;3.70;;;25.80;92.40;;;;;;5063654;28;20457;-58
2023/06/26 00:10:21;;;;;;;4.60;4.10;;;25.80;92.40;;;;;;5063414;28;20440;-58
2023/06/26 00:12:47;;;;;;;4.40;4.00;;;25.80;92.40;;;;;;5062506;28;20453;-56
2023/06/26 00:15:15;;;;;;;3.10;2.90;;;25.80;92.40;;;;;;5062673;28;20443;-57
2023/06/26 00:17:42;;;;;;;3.80;3.43;;;25.80;92.40;;;;;;5062572;28;20450;-58
2023/06/26 00:20:10;;;;;;;4.80;4.40;;;25.70;92.30;;;;;;5062274;28;20490;-58
2023/06/26 00:22:40;;;;;;;5.10;4.67;;;25.70;92.40;;;;;;5062869;28;20445;-57
2023/06/26 00:25:07;;;;;;;4.13;3.83;;;25.70;92.40;;;;;;5062572;28;20542;-57
2023/06/26 00:27:34;;;;;;;4.00;3.70;;;25.70;92.40;;;;;;5061738;28;20548;-56
2023/06/26 00:30:01;;;;;;;4.10;3.70;;;25.80;92.40;;;;;;5062884;28;21164;-58
2023/06/26 00:32:29;;;;;;;4.20;3.80;;;25.70;92.40;;;;;;5062505;28;20584;-57
2023/06/26 00:34:55;;;;;;;4.03;3.73;;;25.70;92.40;;;;;;5061287;28;20817;-58
2023/06/26 00:37:22;;;;;;;4.10;3.70;;;25.70;92.40;;;;;;5062200;28;21287;-58
2023/06/26 00:39:49;;;;;;;4.50;4.20;;;25.70;92.40;;;;;;5061060;28;20842;-56
2023/06/26 00:42:15;;;;;;;4.07;3.73;;;25.70;92.40;;;;;;5062559;28;20441;-58
2023/06/26 00:44:42;;;;;;;5.07;4.57;;;25.70;92.40;;;;;;5062959;28;20852;-57
2023/06/26 00:47:10;;;;;;;4.70;4.30;;;25.70;92.40;;;;;;5069531;28;20450;-58
2023/06/26 00:49:38;;;;;;;3.90;3.60;;;25.70;92.40;;;;;;5062336;28;20473;-58
2023/06/26 00:52:06;;;;;;;4.60;4.30;;;25.70;92.40;;;;;;5067377;28;20518;-58
2023/06/26 00:54:33;;;;;;;4.13;3.83;;;25.70;92.40;;;;;;5069138;28;21031;-57
2023/06/26 00:57:00;;;;;;;4.63;3.90;;;25.70;92.40;;;;;;5065470;28;20452;-54
2023/06/26 00:59:27;;;;;;;3.77;3.47;;;25.70;92.40;;;;;;5064565;28;20483;-58
2023/06/26 01:01:53;;;;;;;4.07;3.77;;;25.70;92.40;;;;;;5064740;28;20924;-58
2023/06/26 01:04:20;;;;;;;4.17;3.87;;;25.70;92.40;;;;;;5064676;28;20960;-58
2023/06/26 01:06:49;;;;;;;3.90;3.53;;;25.70;92.40;;;;;;5070981;28;20873;-58
2023/06/26 01:09:18;;;;;;;3.53;3.23;;;25.70;92.40;;;;;;5068949;28;20923;-58
2023/06/26 01:11:45;;;;;;;3.50;3.20;;;25.70;92.40;;;;;;5062452;28;20885;-58
2023/06/26 01:14:12;;;;;;;3.53;3.30;;;25.70;92.40;;;;;;5061115;28;20518;-57
2023/06/26 01:16:39;;;;;;;4.73;4.37;;;25.70;92.40;;;;;;5061471;28;20872;-57
2023/06/26 01:19:11;;;;;;;3.67;3.37;;;25.70;92.40;;;;;;5060751;28;21010;-57
2023/06/26 01:21:44;;;;;;;4.03;3.73;;;25.70;92.40;;;;;;5061622;28;20834;-57
2023/06/26 01:24:20;;;;;;;3.77;3.47;;;25.70;92.40;;;;;;5061079;28;20481;-57
2023/06/26 01:26:50;;;;;;;4.63;4.00;;;25.70;92.40;;;;;;5061962;28;20937;-58
2023/06/26 01:29:18;;;;;;;3.30;3.00;;;25.70;92.40;;;;;;5062409;28;20461;-57
2023/06/26 01:31:48;;;;;;;3.43;3.13;;;25.70;92.40;;;;;;5062785;28;20457;-56
2023/06/26 01:34:16;;;;;;;4.07;3.77;;;25.70;92.40;;;;;;5061293;28;20477;-58
2023/06/26 01:36:43;;;;;;;3.50;3.20;;;25.70;92.40;;;;;;5063894;28;20445;-58
2023/06/26 01:39:10;;;;;;;4.10;3.70;;;25.70;92.40;;;;;;5061910;28;20444;-57
2023/06/26 01:41:37;;;;;;;3.90;3.60;;;25.70;92.40;;;;;;5063319;28;20949;-56
2023/06/26 01:44:18;;;;;;;3.73;3.20;;;25.70;92.40;;;;;;5064164;28;20817;-57
2023/06/26 01:46:52;;;;;;;3.80;3.50;;;25.70;92.40;;;;;;5068148;28;20551;-57
2023/06/26 01:49:25;;;;;;;3.97;3.67;;;25.70;92.50;;;;;;5068329;28;20790;-57
2023/06/26 01:51:58;;;;;;;3.30;3.00;;;25.70;92.40;;;;;;5069209;28;20445;-57
2023/06/26 01:54:30;;;;;;;4.17;3.87;;;25.70;92.40;;;;;;5067779;28;20873;-58
2023/06/26 01:56:59;;;;;;;3.13;2.93;;;25.70;92.40;;;;;;5068404;28;20464;-58
2023/06/26 01:59:31;;;;;;;3.93;3.43;;;25.70;92.50;;;;;;5069423;28;20487;-57
2023/06/26 02:01:58;;;;;;;3.83;3.43;;;25.70;92.40;;;;;;5069159;28;20532;-58
2023/06/26 02:04:25;;;;;;;3.43;3.13;;;25.70;92.50;;;;;;5068089;28;21074;-58
2023/06/26 02:06:52;;;;;;;4.40;4.00;;;25.70;92.50;;;;;;5070094;28;20974;-56
2023/06/26 02:09:19;;;;;;;4.03;3.73;;;25.70;92.50;;;;;;5071085;28;20792;-58
2023/06/26 02:11:46;;;;;;;3.90;3.60;;;25.70;92.50;;;;;;5072183;28;20456;-57
2023/06/26 02:14:13;;;;;;;3.60;3.30;;;25.70;92.80;;;;;;5073411;28;20441;-58
2023/06/26 02:16:40;;;;;;;3.67;3.37;;;25.70;92.50;;;;;;5070849;28;20472;-58
2023/06/26 02:19:07;;;;;;;3.67;3.47;;;25.70;92.50;;;;;;5072746;28;20457;-58
2023/06/26 02:21:35;;;;;;;2.80;2.60;;;25.70;92.50;;;;;;5069644;28;21031;-57
2023/06/26 02:24:02;;;;;;;3.83;3.53;;;25.70;92.50;;;;;;5067000;28;20468;-57
2023/06/26 02:26:29;;;;;;;4.43;4.10;;;25.60;92.50;;;;;;5067512;28;20449;-58
2023/06/26 02:28:55;;;;;;;3.30;3.03;;;25.60;92.50;;;;;;5064614;28;20471;-58
2023/06/26 02:31:22;;;;;;;3.43;3.13;;;25.60;92.50;;;;;;5064149;28;20941;-58
2023/06/26 02:33:50;;;;;;;4.00;3.60;;;25.60;92.50;;;;;;5064387;28;20450;-58
2023/06/26 02:36:17;;;;;;;3.97;3.67;;;25.60;92.50;;;;;;5064381;28;20442;-58
2023/06/26 02:38:43;;;;;;;3.60;3.30;;;25.60;92.50;;;;;;5064169;28;20441;-56
2023/06/26 02:41:10;;;;;;;3.40;3.10;;;25.60;92.50;;;;;;5062849;28;20489;-58
2023/06/26 02:43:37;;;;;;;3.70;3.40;;;25.60;92.40;;;;;;5063639;28;20465;-57
2023/06/26 02:46:03;;;;;;;3.93;3.63;;;25.60;92.50;;;;;;5063408;28;20466;-58
2023/06/26 02:48:30;;;;;;;3.20;3.00;;;25.60;92.50;;;;;;5063925;28;20507;-58
2023/06/26 02:50:58;;;;;;;4.03;3.73;;;25.60;92.50;;;;;;5066100;28;20466;-58
2023/06/26 02:53:24;;;;;;;3.40;3.10;;;25.60;92.50;;;;;;5065997;28;20449;-57
2023/06/26 02:55:51;;;;;;;3.93;3.63;;;25.60;92.50;;;;;;5065770;28;20450;-55
2023/06/26 02:58:18;;;;;;;3.43;3.20;;;25.60;92.50;;;;;;5064906;28;20455;-58
2023/06/26 03:00:46;;;;;;;3.30;3.00;;;25.60;92.50;;;;;;5064314;28;20481;-58
2023/06/26 03:03:13;;;;;;;2.60;2.40;;;25.60;92.50;;;;;;5065719;28;20437;-58
2023/06/26 03:05:40;;;;;;;3.80;3.50;;;25.60;92.50;;;;;;5064947;28;21045;-57
2023/06/26 03:08:08;;;;;;;3.17;2.97;;;25.60;92.50;;;;;;5063758;28;20964;-57
2023/06/26 03:10:35;;;;;;;2.73;2.53;;;25.60;92.50;;;;;;5063641;28;20948;-57
2023/06/26 03:13:01;;;;;;;4.37;3.97;;;25.60;92.50;;;;;;5064608;28;20950;-58
2023/06/26 03:15:28;;;;;;;3.30;3.00;;;25.60;92.90;;;;;;5063704;28;20829;-57
2023/06/26 03:17:54;;;;;;;3.57;3.37;;;25.60;92.50;;;;;;5063523;28;20952;-56
2023/06/26 03:20:21;;;;;;;3.37;3.07;;;25.60;92.50;;;;;;5063152;28;21004;-58
2023/06/26 03:22:48;;;;;;;3.43;3.17;;;25.60;92.50;;;;;;5064378;28;20821;-58
2023/06/26 03:25:16;;;;;;;3.33;3.03;;;25.60;92.50;;;;;;5064460;28;20456;-58
2023/06/26 03:27:43;;;;;;;3.40;3.10;;;25.60;92.50;;;;;;5064113;28;20456;-57
2023/06/26 03:30:11;;;;;;;3.27;2.97;;;25.60;92.50;;;;;;5061861;28;21109;-58
2023/06/26 03:32:37;;;;;;;3.30;2.97;;;25.60;92.50;;;;;;5063630;28;20843;-58
2023/06/26 03:35:05;;;;;;;3.77;3.47;;;25.60;92.50;;;;;;5063104;28;21109;-58
2023/06/26 03:37:31;;;;;;;3.50;3.20;;;25.60;92.50;;;;;;5064195;28;20453;-58
2023/06/26 03:39:58;;;;;;;2.90;2.70;;;25.60;92.90;;;;;;5064462;28;20489;-58
2023/06/26 03:42:26;;;;;;;3.80;3.50;;;25.60;92.50;;;;;;5064760;28;20467;-58
2023/06/26 03:44:52;;;;;;;3.30;3.10;;;25.60;92.50;;;;;;5062606;28;20497;-58
2023/06/26 03:47:19;;;;;;;3.47;3.27;;;25.60;92.50;;;;;;5063568;28;20437;-58
2023/06/26 03:49:46;;;;;;;3.60;3.30;;;25.60;92.90;;;;;;5062390;28;20457;-57
2023/06/26 03:52:12;;;;;;;3.60;3.30;;;25.60;92.50;;;;;;5063641;28;20461;-56
2023/06/26 03:54:39;;;;;;;3.30;3.10;;;25.60;92.50;;;;;;5063927;28;20452;-56
2023/06/26 03:57:06;;;;;;;3.17;2.93;;;25.50;92.50;;;;;;5062507;28;20485;-57
2023/06/26 03:59:34;;;;;;;3.60;3.30;;;25.50;92.50;;;;;;5062325;28;20854;-57
2023/06/26 04:02:01;;;;;;;3.50;3.23;;;25.60;92.50;;;;;;5062222;28;20486;-57
2023/06/26 04:04:27;;;;;;;3.50;3.20;;;25.60;92.50;;;;;;5063689;28;20465;-58
2023/06/26 04:06:54;;;;;;;3.53;3.23;;;25.60;92.50;;;;;;5065459;28;20442;-57
2023/06/26 04:09:21;;;;;;;3.53;3.23;;;25.60;92.50;;;;;;5062155;28;20461;-58
2023/06/26 04:11:48;;;;;;;3.50;3.30;;;25.60;92.50;;;;;;5065979;28;20464;-58
2023/06/26 04:14:14;;;;;;;3.37;3.10;;;25.60;92.60;;;;;;5063410;28;20458;-56
2023/06/26 04:16:42;;;;;;;3.40;3.10;;;25.60;92.90;;;;;;5066516;28;20457;-58
2023/06/26 04:19:10;;;;;;;3.20;3.00;;;25.60;92.50;;;;;;5065049;28;20471;-58
2023/06/26 04:21:36;;;;;;;3.50;3.20;;;25.60;92.60;;;;;;5070020;28;21108;-57
2023/06/26 04:24:03;;;;;;;3.70;3.40;;;25.50;92.50;;;;;;5069375;28;20966;-58
2023/06/26 04:26:30;;;;;;;3.30;3.00;;;25.50;92.50;;;;;;5070831;28;20448;-58
2023/06/26 04:28:56;;;;;;;3.30;3.00;;;25.60;92.50;;;;;;5070614;28;20466;-56
2023/06/26 04:31:23;;;;;;;3.73;3.40;;;25.60;92.50;;;;;;5069928;28;20569;-57
2023/06/26 04:33:54;;;;;;;3.57;3.27;;;25.50;92.90;;;;;;5071846;28;20491;-57
2023/06/26 04:36:22;;;;;;;3.90;3.50;;;25.60;92.60;;;;;;5071870;28;20737;-58
2023/06/26 04:38:49;;;;;;;4.00;3.70;;;25.50;92.50;;;;;;5069638;28;20863;-57
2023/06/26 04:41:15;;;;;;;3.90;3.57;;;25.50;92.50;;;;;;5069414;28;20478;-57
2023/06/26 04:43:42;;;;;;;3.73;3.43;;;25.50;92.50;;;;;;5073184;28;20658;-57
2023/06/26 04:46:09;;;;;;;3.77;3.43;;;25.50;92.50;;;;;;5068526;28;20451;-57
2023/06/26 04:48:35;;;;;;;3.13;2.83;;;25.50;92.50;;;;;;5062530;28;20452;-58
2023/06/26 04:51:03;;;;;;;3.20;3.00;;;25.50;92.50;;;;;;5066989;28;20473;-58
2023/06/26 04:53:30;;;;;;;3.37;3.07;;;25.50;92.50;;;;;;5075613;28;20506;-56
2023/06/26 04:55:57;;;;;;;3.67;3.37;;;25.50;92.50;;;;;;5074466;28;20454;-58
2023/06/26 04:58:23;;;;;;;3.30;3.00;;;25.50;92.50;;;;;;5072470;28;20464;-58
2023/06/26 05:00:50;;;;;;;3.70;3.40;;;25.50;92.50;;;;;;5074666;28;20481;-57
2023/06/26 05:03:18;;;;;;;4.03;3.30;;;25.50;92.60;;;;;;5075656;28;20444;-58
2023/06/26 05:05:45;;;;;;;3.70;3.40;;;25.50;92.60;;;;;;5072729;28;20553;-58
2023/06/26 05:08:18;;;;;;;3.77;3.47;;;25.50;92.60;;;;;;5076448;28;20819;-58
2023/06/26 05:10:45;;;;;;;3.63;3.33;;;25.50;92.60;;;;;;5072081;28;20938;-58
2023/06/26 05:13:14;;;;;;;3.50;3.10;;;25.50;92.60;;;;;;5072812;28;21090;-57
2023/06/26 05:15:41;;;;;;;3.20;2.90;;;25.50;92.60;;;;;;5074935;28;20540;-58
2023/06/26 05:18:08;;;;;;;4.27;3.87;;;25.50;92.60;;;;;;5073594;28;20903;-57
2023/06/26 05:20:35;;;;;;;4.53;3.43;;;25.50;92.60;;;;;;5070447;28;20481;-57
2023/06/26 05:23:02;;;;;;;3.73;3.20;;;25.50;92.60;;;;;;5066742;28;20453;-57
2023/06/26 05:25:31;;;;;;;3.57;3.27;;;25.50;92.50;;;;;;5070827;28;20437;-58
2023/06/26 05:27:59;;;;;;;3.73;3.43;;;25.50;92.60;;;;;;5070340;28;20831;-58
2023/06/26 05:30:27;;;;;;;3.80;3.50;;;25.50;92.60;;;;;;5070804;28;20582;-58
2023/06/26 05:32:54;;;;;;;3.70;3.40;;;25.50;92.60;;;;;;5069208;28;20505;-58
2023/06/26 05:35:22;;;;;;;3.73;3.43;;;25.50;92.60;;;;;;5067811;28;20461;-58
2023/06/26 05:37:51;;;;;;;3.13;2.93;;;25.50;92.60;;;;;;5064706;28;20548;-58
2023/06/26 05:40:19;;;;;;;3.00;2.80;;;25.50;92.60;;;;;;5065589;28;20444;-58
2023/06/26 05:42:48;;;;;;;3.07;2.87;;;25.50;92.60;;;;;;5072240;28;20464;-58
2023/06/26 05:45:15;;;;;;;3.40;3.20;;;25.50;92.60;;;;;;5067534;28;20522;-57
2023/06/26 05:47:41;;;;;;;3.17;2.97;;;25.50;92.60;;;;;;5075642;28;20452;-58
2023/06/26 05:50:09;;;;;;;3.10;2.90;;;25.50;92.60;;;;;;5070491;28;20878;-58
2023/06/26 05:52:38;;;;;;;3.53;3.30;;;25.50;92.60;;;;;;5077662;28;20555;-58
2023/06/26 05:55:06;;;;;;;3.50;3.30;;;25.50;92.60;;;;;;5069616;28;20454;-58
2023/06/26 05:57:34;;;;;;;3.10;2.90;;;25.50;92.60;;;;;;5065416;28;20449;-57
2023/06/26 06:00:05;;;;;;;3.40;3.10;;;25.50;92.60;;;;;;5069870;28;20456;-56
2023/06/26 06:02:32;;;;;;;3.73;3.43;;;25.50;92.60;;;;;;5071950;28;20476;-55
2023/06/26 06:04:59;;;;;;;3.10;2.80;;;25.50;92.60;;;;;;5069524;28;20476;-57
2023/06/26 06:07:25;;;;;;;3.60;3.30;;;25.50;92.60;;;;;;5074843;28;20449;-55
2023/06/26 06:09:52;;;;;;;3.63;3.40;;;25.50;92.60;;;;;;5071642;28;20895;-57
2023/06/26 06:12:19;;;;;;;3.73;3.43;;;25.50;92.60;;;;;;5071167;28;20509;-54
2023/06/26 06:14:46;;;;;;;3.90;3.60;;;25.50;92.60;;;;;;5065940;28;20452;-56
2023/06/26 06:17:13;;;;;;;3.07;2.87;;;25.50;92.70;;;;;;5068064;28;20454;-55
2023/06/26 06:19:40;;;;;;;3.60;3.30;;;25.50;92.60;;;;;;5067743;28;20466;-55
2023/06/26 06:22:07;;;;;;;3.40;3.10;;;25.50;92.70;;;;;;5068710;28;20484;-56
2023/06/26 06:24:33;;;;;;;5.70;2.97;;;25.60;92.70;;;;;;5070648;28;20479;-55
2023/06/26 06:27:00;;;;;;;3.13;2.83;;;25.60;92.70;;;;;;5071837;28;20440;-55
2023/06/26 06:29:27;;;;;;;4.03;2.63;;;25.60;93.10;;;;;;5071562;28;20901;-57
2023/06/26 06:31:53;;;;;;;3.70;3.33;;;25.60;92.70;;;;;;5070955;28;21112;-56
2023/06/26 06:34:21;;;;;;;4.20;3.80;;;25.60;92.80;;;;;;5071346;28;20880;-55
2023/06/26 06:36:49;;;;;;;2.97;2.77;;;25.60;92.80;;;;;;5071358;28;20440;-58
2023/06/26 06:39:16;;;;;;;3.50;3.20;;;25.60;92.80;;;;;;5071686;28;20956;-53
2023/06/26 06:41:43;;;;;;;3.67;3.47;;;25.60;92.80;;;;;;5072160;28;20472;-57
2023/06/26 06:44:09;;;;;;;3.40;3.10;;;25.60;93.20;;;;;;5070256;28;20464;-57
2023/06/26 06:46:36;;;;;;;3.73;3.37;;;25.60;92.80;;;;;;5070863;28;20455;-56
2023/06/26 06:49:04;;;;;;;4.00;3.70;;;25.60;92.80;;;;;;5067995;28;21042;-57
2023/06/26 06:51:32;;;;;;;3.63;3.33;;;25.60;92.80;;;;;;5070016;28;20467;-55
2023/06/26 06:53:58;;;;;;;3.67;3.37;;;25.60;92.80;;;;;;5069292;28;20445;-53
2023/06/26 06:56:25;;;;;;;3.03;2.83;;;25.60;92.80;;;;;;5069473;28;20449;-57
2023/06/26 06:58:52;;;;;;;3.17;2.93;;;25.60;92.80;;;;;;5068425;28;20501;-56
2023/06/26 07:01:18;;;;;;;4.10;3.80;;;25.60;92.80;;;;;;5067134;28;20623;-56
2023/06/26 07:03:45;;;;;;;3.70;3.40;;;25.60;92.80;;;;;;5068950;28;20468;-57
2023/06/26 07:06:11;;;;;;;3.00;2.70;;;25.60;92.80;;;;;;5068382;28;20444;-55
2023/06/26 07:08:40;;;;;;;3.00;2.80;;;25.60;93.10;;;;;;5069958;28;20495;-53
2023/06/26 07:11:06;;;;;;;3.40;3.13;;;25.60;92.80;;;;;;5069422;28;20856;-55
2023/06/26 07:13:33;;;;;;;4.20;3.00;;;25.60;92.80;;;;;;5069542;28;20461;-55
2023/06/26 07:16:00;;;;;;;3.13;2.90;;;25.60;92.80;;;;;;5068985;28;20444;-54
2023/06/26 07:18:26;;;;;;;3.30;3.03;;;25.60;92.80;;;;;;5070865;28;20453;-54
2023/06/26 07:20:53;;;;;;;6.23;3.77;;;25.70;92.80;;;;;;5069720;28;20462;-56
2023/06/26 07:23:19;;;;;;;3.87;3.50;;;25.60;92.80;;;;;;5064525;28;20463;-54
2023/06/26 07:25:47;;;;;;;3.70;3.40;;;25.70;92.80;;;;;;5067251;28;20461;-57
2023/06/26 07:28:14;;;;;;;4.40;3.97;;;25.70;92.80;;;;;;5068462;28;20450;-55
2023/06/26 07:30:41;;;;;;;3.37;3.07;;;25.70;92.80;;;;;;5070719;28;20793;-55
2023/06/26 07:33:08;;;;;;;3.97;3.60;;;25.70;92.80;;;;;;5069387;28;20957;-56
2023/06/26 07:35:34;;;;;;;4.30;3.93;;;25.70;92.90;;;;;;5067788;28;20845;-56
2023/06/26 07:38:01;;;;;;;5.90;4.00;;;25.70;92.90;;;;;;5068050;28;20448;-55
2023/06/26 07:40:28;;;;;;;5.97;4.03;;;25.70;92.80;;;;;;5070175;28;20848;-55
2023/06/26 07:42:58;;;;;;;4.40;3.60;;;25.70;92.80;;;;;;5071985;28;20485;-55
2023/06/26 07:45:24;;;;;;;4.27;3.77;;;25.70;92.80;;;;;;5065851;28;21218;-57
2023/06/26 07:47:51;;;;;;;5.33;4.03;;;25.70;92.90;;;;;;5069037;28;20863;-55
2023/06/26 07:50:21;;;;;;;3.50;3.20;;;25.70;92.90;;;;;;5065439;28;20465;-56
2023/06/26 07:52:48;;;;;;;4.37;4.07;;;25.70;92.90;;;;;;5070559;28;20452;-55
2023/06/26 07:55:15;;;;;;;3.57;3.27;;;25.70;92.90;;;;;;5073268;28;20455;-57
2023/06/26 07:57:41;;;;;;;3.73;3.37;;;25.70;92.90;;;;;;5065290;28;20447;-53
2023/06/26 08:00:11;;;;;;;3.80;3.50;;;25.70;92.80;;;;;;5063313;28;20463;-55
2023/06/26 08:02:38;;;;;;;7.00;4.63;;;25.70;92.80;;;;;;5064536;28;20883;-57
2023/06/26 08:08:27;;;;;;;3.87;3.53;;;25.70;92.90;;;;;;5059609;28;20459;-57
2023/06/26 08:10:53;;;;;;;4.47;3.57;;;25.70;92.80;;;;;;5062608;28;21080;-57
2023/06/26 08:13:20;;;;;;;7.33;3.80;;;25.70;92.80;;;;;;5064815;28;20451;-56
2023/06/26 08:15:48;;;;;;;3.93;3.53;;;25.80;92.90;;;;;;5064375;28;20453;-57
2023/06/26 08:18:15;;;;;;;5.63;4.20;;;25.80;92.90;;;;;;5066074;28;20464;-55
2023/06/26 08:20:41;;;;;;;5.00;4.00;;;25.80;92.90;;;;;;5066045;28;21000;-57
2023/06/26 08:23:08;;;;;;;7.90;5.20;;;25.80;92.90;;;;;;5063799;28;20485;-57
2023/06/26 08:25:35;;;;;;;7.43;5.00;;;25.80;93.30;;;;;;5070953;28;20797;-55
2023/06/26 08:28:02;;;;;;;7.23;5.00;;;25.80;93.40;;;;;;5067565;28;20453;-55
2023/06/26 08:30:28;;;;;;;5.90;5.20;;;25.70;93.40;;;;;;5062546;28;20452;-56
2023/06/26 08:39:37;;;;;;;8.47;5.60;;;25.80;93.60;;;;;;5031306;28;20454;-81
2023/06/26 08:42:07;;;;;;;7.80;5.17;;;25.70;93.50;;;;;;5032140;28;20482;-80
2023/06/26 08:44:33;;;;;;;7.67;5.30;;;25.70;93.50;;;;;;5035191;28;20451;-81
2023/06/26 08:47:01;;;;;;;8.20;5.50;;;25.80;93.50;;;;;;5034218;28;20570;-81
2023/06/26 08:49:35;;;;;;;8.73;6.30;;;25.80;93.60;;;;;;5034981;28;21409;-80
2023/06/26 08:52:11;;;;;;;6.53;5.30;;;25.80;93.70;;;;;;5035380;28;21480;-80
2023/06/26 08:54:47;;;;;;;10.30;6.30;;;25.80;93.80;;;;;;5034967;28;21022;-80
2023/06/26 08:57:18;;;;;;;5.57;4.87;;;25.80;93.80;;;;;;5042269;28;20458;-79
2023/06/26 08:59:45;;;;;;;6.40;5.43;;;25.70;93.70;;;;;;5040776;28;20439;-79
2023/06/26 09:02:13;;;;;;;9.60;5.50;;;25.80;93.70;;;;;;5040305;28;20474;-79
2023/06/26 09:04:41;;;;;;;9.10;5.60;;;25.80;93.70;;;;;;5038999;28;20447;-79
2023/06/26 09:07:08;;;;;;;8.30;5.50;;;25.80;93.70;;;;;;5036435;28;20462;-75
2023/06/26 09:09:34;;;;;;;6.13;5.10;;;25.80;93.70;;;;;;5035612;28;20458;-75
2023/06/26 09:12:04;;;;;;;8.00;4.90;;;25.80;93.60;;;;;;5035657;28;20451;-77
2023/06/26 09:14:31;;;;;;;10.03;5.20;;;25.80;93.80;;;;;;5032947;28;20453;-73
2023/06/26 09:16:59;;;;;;;6.50;4.67;;;25.80;93.90;;;;;;5033366;28;21104;-78
2023/06/26 09:19:26;;;;;;;8.73;5.30;;;25.80;93.90;;;;;;5035981;28;20446;-79
2023/06/26 09:21:53;;;;;;;7.50;5.27;;;25.80;94.10;;;;;;5036470;28;20482;-80
2023/06/26 09:24:20;;;;;;;6.00;5.40;;;25.80;94.20;;;;;;5039170;28;20459;-85
2023/06/26 09:26:50;;;;;;;8.73;5.73;;;25.80;93.90;;;;;;5041547;28;20468;-83
2023/06/26 09:29:20;;;;;;;10.00;5.67;;;25.80;94.00;;;;;;5046855;28;20517;-82
2023/06/26 09:31:47;;;;;;;11.63;4.77;;;25.80;94.00;;;;;;5041314;28;20965;-80
2023/06/26 09:34:13;;;;;;;7.10;4.93;;;25.80;94.10;;;;;;5040398;28;20470;-81
2023/06/26 09:36:42;;;;;;;6.20;5.60;;;25.80;94.20;;;;;;5035148;28;20451;-83
2023/06/26 09:39:11;;;;;;;9.97;5.53;;;25.80;94.40;;;;;;5034028;28;20480;-80
2023/06/26 09:41:38;;;;;;;11.97;5.90;;;25.80;94.30;;;;;;5033813;28;20482;-79
2023/06/26 09:44:07;;;;;;;6.57;4.63;;;25.80;94.10;;;;;;5034524;28;20454;-83
2023/06/26 09:46:37;;;;;;;21.90;6.00;;;25.80;93.90;;;;;;5034494;28;20457;-84
2023/06/26 09:49:06;;;;;;;8.80;5.63;;;25.80;93.90;;;;;;5034621;28;20844;-83
2023/06/26 09:51:33;;;;;;;5.50;4.50;;;25.80;93.90;;;;;;5035852;28;20451;-82
2023/06/26 09:54:00;;;;;;;6.80;4.30;;;25.90;93.90;;;;;;5033528;28;20461;-82
2023/06/26 09:56:28;;;;;;;10.00;4.57;;;25.90;93.70;;;;;;5035856;28;21316;-80
2023/06/26 09:58:57;;;;;;;11.13;5.13;;;25.90;93.60;;;;;;5033677;28;20470;-82
2023/06/26 10:01:24;;;;;;;7.90;6.67;;;25.90;93.60;;;;;;5040571;28;20486;-85
2023/06/26 10:03:53;;;;;;;8.67;4.83;;;25.90;93.60;;;;;;5036688;28;21002;-84
2023/06/26 10:06:25;;;;;;;8.63;4.70;;;25.90;93.50;;;;;;5031143;28;20463;-84
2023/06/26 10:08:52;;;;;;;9.17;4.40;;;26.00;93.40;;;;;;5037755;28;20467;-83
2023/06/26 10:11:23;;;;;;;10.03;4.80;;;26.00;93.30;;;;;;5043636;28;20444;-82
2023/06/26 10:13:52;;;;;;;7.37;4.30;;;26.00;93.40;;;;;;5049626;28;20516;-81
2023/06/26 10:16:24;;;;;;;5.00;4.60;;;26.10;93.30;;;;;;5045595;28;21124;-86
2023/06/26 10:18:54;;;;;;;10.83;5.70;;;26.10;93.20;;;;;;5044337;28;20496;-80
2023/06/26 10:21:23;;;;;;;5.00;4.10;;;26.20;93.20;;;;;;5044038;28;20444;-81
2023/06/26 10:23:52;;;;;;;6.63;4.50;;;26.20;93.20;;;;;;5043423;28;20482;-81
2023/06/26 10:26:22;;;;;;;13.13;5.17;;;26.20;93.10;;;;;;5041683;28;20456;-81
2023/06/26 10:28:52;;;;;;;7.47;4.40;;;26.20;92.90;;;;;;5039349;28;21174;-82
2023/06/26 10:31:22;;;;;;;9.43;4.73;;;26.20;92.90;;;;;;5042214;28;20465;-81
2023/06/26 10:33:50;;;;;;;8.00;4.77;;;26.20;92.80;;;;;;5046167;28;20472;-82
2023/06/26 10:36:19;;;;;;;5.83;4.20;;;26.30;92.70;;;;;;5044242;28;20448;-82
2023/06/26 10:38:53;;;;;;;6.83;3.50;;;26.30;92.60;;;;;;5047983;28;20457;-81
2023/06/26 10:41:24;;;;;;;5.90;4.00;;;26.30;92.50;;;;;;5036548;28;20459;-82
2023/06/26 10:44:06;;;;;;;7.30;4.03;;;26.30;92.30;;;;;;5036353;28;21411;-83
2023/06/26 10:46:34;;;;;;;5.00;4.30;;;26.40;92.40;;;;;;5040358;28;20453;-82
2023/06/26 10:49:04;;;;;;;5.67;3.53;;;26.40;92.40;;;;;;5037157;28;20455;-82
2023/06/26 10:51:32;;;;;;;5.50;3.93;;;26.40;92.30;;;;;;5043068;28;20484;-81
2023/06/26 10:54:01;;;;;;;4.37;3.60;;;26.40;92.00;;;;;;5039147;28;20916;-81
2023/06/26 10:56:44;;;;;;;7.17;4.40;;;26.40;92.00;;;;;;5036720;28;22244;-81
2023/06/26 10:59:16;;;;;;;4.80;4.23;;;26.40;91.70;;;;;;5032831;28;20747;-80
2023/06/26 11:01:44;;;;;;;4.00;3.33;;;26.50;91.80;;;;;;5033216;28;20435;-83
2023/06/26 11:04:11;;;;;;;4.63;3.50;;;26.50;91.70;;;;;;5035150;28;20503;-82
2023/06/26 11:06:40;;;;;;;5.57;4.50;;;26.50;91.50;;;;;;5034368;28;21313;-85
2023/06/26 11:09:12;;;;;;;5.43;3.83;;;26.50;91.40;;;;;;5033733;28;20464;-82
2023/06/26 11:11:59;;;;;;;3.90;3.30;;;26.60;91.40;;;;;;5036664;28;21511;-81
2023/06/26 11:14:27;;;;;;;6.10;4.03;;;26.60;91.10;;;;;;5034809;28;21079;-82
2023/06/26 11:16:55;;;;;;;5.50;3.93;;;26.60;91.20;;;;;;5031239;28;20876;-84
2023/06/26 11:19:22;;;;;;;7.87;4.40;;;26.60;91.30;;;;;;5034380;28;20456;-82
2023/06/26 11:21:52;;;;;;;5.33;4.27;;;26.60;91.10;;;;;;5033999;28;21008;-85
2023/06/26 11:24:20;;;;;;;5.87;3.70;;;26.70;91.00;;;;;;5031966;28;20484;-81
2023/06/26 11:26:47;;;;;;;3.47;3.17;;;26.70;90.20;;;;;;5031317;28;20531;-82
2023/06/26 11:29:14;;;;;;;6.77;3.20;;;26.70;89.60;;;;;;5031763;28;20462;-82
2023/06/26 11:31:42;;;;;;;3.77;3.20;;;26.70;87.50;;;;;;5033771;28;21028;-82
2023/06/26 11:34:11;;;;;;;6.63;3.73;;;26.70;86.90;;;;;;5032849;28;20447;-82
2023/06/26 11:36:38;;;;;;;4.43;3.07;;;26.70;85.00;;;;;;5033118;28;20503;-82
2023/06/26 11:39:07;;;;;;;4.37;3.60;;;26.70;84.60;;;;;;5034893;28;20472;-83
2023/06/26 11:41:35;;;;;;;2.97;2.73;;;26.70;85.40;;;;;;5036487;28;20819;-82
2023/06/26 11:44:02;;;;;;;7.57;3.53;;;26.70;85.30;;;;;;5034271;28;20497;-82
2023/06/26 11:46:29;;;;;;;3.20;2.90;;;26.70;83.70;;;;;;5034877;28;20454;-82
2023/06/26 11:48:56;;;;;;;6.03;3.50;;;26.70;83.20;;;;;;5037546;28;20529;-81
2023/06/26 11:51:23;;;;;;;3.87;2.63;;;26.70;83.00;;;;;;5042064;28;20476;-83
2023/06/26 11:53:52;;;;;;;3.93;2.97;;;26.70;83.10;;;;;;5031307;28;20942;-81
2023/06/26 11:56:22;;;;;;;3.30;2.93;;;26.70;82.00;;;;;;5030283;28;20540;-82
2023/06/26 11:59:00;;;;;;;2.80;2.60;;;26.70;82.80;;;;;;5029718;28;20438;-82
2023/06/26 12:01:28;;;;;;;4.40;2.47;;;26.70;82.50;;;;;;5031612;28;20910;-77
2023/06/26 12:04:01;;;;;;;4.73;3.17;;;26.70;83.40;;;;;;5027805;28;20478;-77
2023/06/26 12:06:30;;;;;;;6.40;3.07;;;26.70;82.60;;;;;;5028639;28;20506;-79
2023/06/26 12:08:57;;;;;;;5.03;3.27;;;26.70;83.20;;;;;;5028911;28;20799;-78
2023/06/26 12:11:26;;;;;;;3.50;2.60;;;26.80;83.30;;;;;;5028776;28;20449;-77
2023/06/26 12:13:53;;;;;;;3.37;3.07;;;26.80;82.50;;;;;;5028620;28;20500;-78
2023/06/26 12:16:20;;;;;;;6.60;3.13;;;26.80;82.60;;;;;;5029358;28;20477;-77
2023/06/26 12:18:47;;;;;;;4.10;3.03;;;26.80;83.10;;;;;;5015499;28;20510;-76
2023/06/26 12:21:30;;;;;;;6.07;3.03;;;26.70;82.00;;;;;;5021006;28;20574;-78
2023/06/26 12:24:00;;;;;;;5.33;3.37;;;26.70;81.80;;;;;;5019472;28;21036;-78
2023/06/26 12:26:29;;;;;;;3.77;2.40;;;26.80;81.70;;;;;;5021161;28;20490;-78
2023/06/26 12:29:03;;;;;;;3.40;2.93;;;26.70;82.10;;;;;;5017796;28;20475;-78
2023/06/26 12:31:33;;;;;;;8.87;2.63;;;26.70;81.20;;;;;;5020138;28;20486;-78
2023/06/26 12:34:00;;;;;;;6.00;3.10;;;26.70;81.70;;;;;;5019654;28;20483;-78
2023/06/26 12:36:27;;;;;;;3.10;2.50;;;26.70;81.80;;;;;;5019479;28;20493;-78
2023/06/26 12:38:55;;;;;;;3.23;2.90;;;26.70;81.70;;;;;;5015344;28;20482;-78
2023/06/26 12:41:25;;;;;;;3.60;2.87;;;26.70;81.60;;;;;;5020430;28;20481;-76
2023/06/26 12:43:58;;;;;;;4.07;3.40;;;26.70;81.50;;;;;;5023780;28;20596;-77
2023/06/26 12:46:35;;;;;;;4.10;2.77;;;26.80;82.50;;;;;;5020283;28;21080;-76
2023/06/26 12:49:02;;;;;;;7.00;3.73;;;26.80;82.40;;;;;;5022221;28;21110;-77
2023/06/26 12:51:29;;;;;;;4.13;2.63;;;26.70;83.30;;;;;;5023428;28;20483;-77
2023/06/26 12:53:56;;;;;;;3.63;3.07;;;26.70;81.60;;;;;;5021217;28;20559;-77
2023/06/26 12:56:23;;;;;;;4.00;2.50;;;26.70;81.40;;;;;;5022492;28;21607;-76
2023/06/26 12:58:49;;;;;;;4.50;2.30;;;26.70;81.30;;;;;;5028059;28;20469;-77